Time;durP1;ratioP1;P1;durP2;ratioP2;P2;SDS_P1;SDS_P2;PMS_P1;PMS_P2;Temp;Humidity;BMP_temperature;BMP_pressure;BME280_temperature;BME280_humidity;BME280_pressure;Samples;Min_cycle;Max_cycle;Signal;HPM_P1;HPM_P2
2022/05/31 00:01:50;;;;;;;19.33;12.43;;;;;;;9.37;70.52;101276.59;5032374;28;20108;-60
2022/05/31 00:04:15;;;;;;;20.25;12.15;;;;;;;9.35;70.56;101276.91;5032867;28;20052;-60
2022/05/31 00:06:41;;;;;;;20.58;12.20;;;;;;;9.33;70.50;101279.13;5032985;28;20021;-60
2022/05/31 00:09:07;;;;;;;18.77;11.60;;;;;;;9.32;70.78;101271.13;5031225;28;20108;-60
2022/05/31 00:11:32;;;;;;;19.30;12.50;;;;;;;9.24;71.38;101267.03;5032608;28;20108;-60
2022/05/31 00:13:57;;;;;;;20.25;12.63;;;;;;;9.17;71.51;101263.78;5032337;28;20099;-60
2022/05/31 00:16:23;;;;;;;21.02;12.30;;;;;;;9.14;71.63;101264.34;5032994;28;20047;-60
2022/05/31 00:18:48;;;;;;;21.70;12.77;;;;;;;9.14;72.35;101267.09;5032513;28;20029;-61
2022/05/31 00:21:13;;;;;;;20.13;12.60;;;;;;;9.11;72.38;101265.75;5033024;28;20441;-60
2022/05/31 00:23:40;;;;;;;18.25;11.70;;;;;;;9.07;71.92;101274.88;5032602;28;20021;-60
2022/05/31 00:26:05;;;;;;;20.63;12.38;;;;;;;9.03;72.07;101277.41;5032866;28;20080;-60
2022/05/31 00:28:31;;;;;;;20.38;12.40;;;;;;;8.98;72.45;101271.88;5032440;28;20445;-61
2022/05/31 00:30:57;;;;;;;21.13;12.57;;;;;;;8.97;72.63;101273.84;5032738;28;20167;-61
2022/05/31 00:33:24;;;;;;;20.92;11.60;;;;;;;8.99;72.74;101265.25;5032886;28;20025;-61
2022/05/31 00:35:49;;;;;;;19.60;12.45;;;;;;;8.95;72.97;101269.72;5032189;28;20037;-61
2022/05/31 00:38:16;;;;;;;18.92;12.43;;;;;;;8.95;72.80;101264.19;5032329;28;20025;-61
2022/05/31 00:40:41;;;;;;;19.10;12.00;;;;;;;8.90;72.28;101263.09;5032242;28;20108;-61
2022/05/31 00:43:10;;;;;;;19.75;12.55;;;;;;;8.92;73.07;101273.88;5032097;28;20101;-61
2022/05/31 00:45:48;;;;;;;20.67;12.10;;;;;;;8.89;72.54;101264.22;5032296;28;20032;-60
2022/05/31 00:48:27;;;;;;;20.48;12.25;;;;;;;8.92;72.62;101271.13;5033001;28;20037;-61
2022/05/31 00:50:58;;;;;;;19.67;12.52;;;;;;;8.87;72.96;101269.22;5031023;28;20029;-61
2022/05/31 00:53:29;;;;;;;19.90;12.35;;;;;;;8.86;72.75;101264.81;5032644;28;20125;-61
2022/05/31 00:55:59;;;;;;;20.33;12.32;;;;;;;8.87;72.72;101269.22;5032469;28;20037;-61
2022/05/31 00:58:41;;;;;;;19.13;12.43;;;;;;;8.82;72.85;101271.97;5032303;28;20084;-61
2022/05/31 01:01:14;;;;;;;20.30;12.43;;;;;;;8.80;74.04;101273.38;5032123;28;20053;-61
2022/05/31 01:03:42;;;;;;;19.53;12.03;;;;;;;8.65;74.10;101263.25;5035149;28;20029;-60
2022/05/31 01:06:10;;;;;;;20.30;12.10;;;;;;;8.62;74.10;101274.84;5035996;28;20029;-61
2022/05/31 01:08:36;;;;;;;20.77;12.30;;;;;;;8.61;74.30;101268.50;5036082;28;20084;-61
2022/05/31 01:11:03;;;;;;;19.17;12.43;;;;;;;8.60;74.68;101268.78;5036050;28;20029;-60
2022/05/31 01:13:29;;;;;;;20.27;12.55;;;;;;;8.57;74.43;101270.16;5035699;28;20029;-60
2022/05/31 01:16:07;;;;;;;20.55;12.80;;;;;;;8.54;74.61;101265.22;5035701;28;20068;-60
2022/05/31 01:18:33;;;;;;;19.65;11.80;;;;;;;8.51;74.71;101271.31;5036233;28;20108;-60
2022/05/31 01:21:00;;;;;;;19.73;12.05;;;;;;;8.50;74.97;101258.63;5035356;28;20481;-61
2022/05/31 01:23:30;;;;;;;21.17;12.30;;;;;;;8.49;75.23;101266.06;5036032;28;20053;-60
2022/05/31 01:26:10;;;;;;;20.23;12.30;;;;;;;8.49;75.28;101260.56;5035545;28;20355;-60
2022/05/31 01:28:56;;;;;;;19.45;11.40;;;;;;;8.51;75.17;101261.09;5034637;28;20025;-61
2022/05/31 01:31:33;;;;;;;19.50;11.52;;;;;;;8.46;75.18;101250.06;5035271;28;20121;-61
2022/05/31 01:34:04;;;;;;;19.27;11.52;;;;;;;8.44;75.44;101252.25;5035339;28;20026;-60
2022/05/31 01:36:36;;;;;;;18.35;11.52;;;;;;;8.39;75.88;101255.06;5035178;28;20037;-60
2022/05/31 01:39:07;;;;;;;19.75;12.13;;;;;;;8.31;76.33;101245.41;5035033;28;20139;-60
2022/05/31 01:41:52;;;;;;;18.95;11.88;;;;;;;8.33;76.21;101250.63;5035123;28;20345;-60
2022/05/31 01:44:19;;;;;;;18.50;11.48;;;;;;;8.26;76.62;101249.03;5035037;28;20029;-60
2022/05/31 01:46:48;;;;;;;19.10;12.20;;;;;;;8.14;76.84;101240.22;5035048;28;20033;-60
2022/05/31 01:49:15;;;;;;;19.70;12.43;;;;;;;8.14;76.82;101242.16;5035103;28;20392;-61
2022/05/31 01:51:42;;;;;;;19.55;11.90;;;;;;;8.18;77.01;101249.59;5034301;28;20071;-60
2022/05/31 01:54:12;;;;;;;18.38;11.65;;;;;;;8.16;76.96;101251.00;5034765;28;20382;-60
2022/05/31 01:56:40;;;;;;;19.40;11.77;;;;;;;8.17;76.67;101253.47;5034789;28;20084;-61
2022/05/31 01:59:06;;;;;;;19.83;11.70;;;;;;;8.15;76.90;101249.34;5035137;28;20032;-60
2022/05/31 02:01:35;;;;;;;20.13;12.02;;;;;;;8.10;76.60;101241.91;5035024;28;20108;-59
2022/05/31 02:04:02;;;;;;;21.38;11.90;;;;;;;8.09;76.63;101243.81;5034733;28;20022;-60
2022/05/31 02:06:33;;;;;;;21.10;12.55;;;;;;;8.08;76.77;101244.13;5034345;28;20037;-60
2022/05/31 02:08:59;;;;;;;20.38;12.75;;;;;;;8.07;76.47;101250.72;5034979;28;20108;-60
2022/05/31 02:11:25;;;;;;;19.52;12.77;;;;;;;8.04;76.71;101245.75;5033391;28;20042;-60
2022/05/31 02:13:50;;;;;;;18.60;11.57;;;;;;;8.02;76.90;101250.75;5034228;28;20053;-60
2022/05/31 02:16:17;;;;;;;19.40;12.10;;;;;;;8.00;76.91;101245.50;5033182;28;20030;-60
2022/05/31 02:21:35;;;;;;;;;;;;;;;8.00;75.33;101242.75;5035300;28;20080;-60
2022/05/31 02:24:01;;;;;;;20.63;12.55;;;;;;;7.90;77.29;101238.09;5034628;28;19917;-60
2022/05/31 02:26:27;;;;;;;21.20;13.40;;;;;;;7.83;78.13;101242.22;5033088;28;20049;-60
2022/05/31 02:28:52;;;;;;;21.90;13.15;;;;;;;7.80;78.40;101246.38;5034548;28;20112;-60
2022/05/31 02:31:17;;;;;;;22.38;13.88;;;;;;;7.74;78.79;101245.56;5034251;28;20056;-60
2022/05/31 02:33:42;;;;;;;21.52;13.02;;;;;;;7.68;79.45;101243.91;5034455;28;20370;-60
2022/05/31 02:36:08;;;;;;;20.95;13.85;;;;;;;7.68;79.58;101246.66;5034406;28;20025;-60
2022/05/31 02:38:33;;;;;;;22.85;13.90;;;;;;;7.64;80.01;101242.81;5034465;28;20056;-60
2022/05/31 02:40:58;;;;;;;20.95;14.20;;;;;;;7.63;80.00;101235.63;5034458;28;20354;-60
2022/05/31 02:43:24;;;;;;;21.15;14.52;;;;;;;7.69;79.69;101230.97;5034061;28;20068;-60
2022/05/31 02:45:49;;;;;;;22.80;15.10;;;;;;;7.69;79.83;101239.22;5034155;28;20079;-61
2022/05/31 02:48:15;;;;;;;23.52;13.95;;;;;;;7.70;79.61;101235.38;5033981;28;20453;-60
2022/05/31 02:50:40;;;;;;;22.00;13.93;;;;;;;7.71;79.85;101223.25;5033723;28;20072;-60
2022/05/31 02:53:05;;;;;;;22.95;14.68;;;;;;;7.74;79.85;101228.22;5033931;28;20099;-60
2022/05/31 02:55:31;;;;;;;22.65;14.85;;;;;;;7.75;79.53;101224.31;5033337;28;20464;-60
2022/05/31 02:57:56;;;;;;;23.73;14.55;;;;;;;7.77;79.78;101220.22;5033445;28;20025;-60
2022/05/31 03:00:22;;;;;;;23.58;14.55;;;;;;;7.80;79.45;101224.34;5033955;28;20133;-61
2022/05/31 03:02:47;;;;;;;24.45;15.20;;;;;;;7.86;79.54;101234.22;5033530;28;20036;-61
2022/05/31 03:05:12;;;;;;;23.55;14.73;;;;;;;7.93;79.03;101237.53;5033775;28;20031;-60
2022/05/31 03:07:38;;;;;;;24.13;15.38;;;;;;;7.98;79.28;101233.97;5033784;28;20026;-60
2022/05/31 03:10:03;;;;;;;25.00;14.77;;;;;;;8.01;79.02;101227.06;5033547;28;20381;-60
2022/05/31 03:12:30;;;;;;;23.33;14.48;;;;;;;8.07;78.66;101228.69;5033513;28;20030;-60
2022/05/31 03:15:09;;;;;;;24.13;14.75;;;;;;;8.09;78.69;101224.53;5033281;28;20033;-60
2022/05/31 03:17:42;;;;;;;24.73;15.40;;;;;;;8.07;78.75;101221.25;5033921;28;20037;-60
2022/05/31 03:20:15;;;;;;;24.60;16.55;;;;;;;8.16;78.32;101231.69;5032679;28;20087;-60
2022/05/31 03:22:51;;;;;;;24.75;16.83;;;;;;;8.16;78.90;101229.75;5034076;28;20036;-60
2022/05/31 03:25:22;;;;;;;25.60;17.63;;;;;;;8.07;79.32;101215.75;5033106;28;20045;-60
2022/05/31 03:27:49;;;;;;;24.23;15.45;;;;;;;8.09;79.38;101226.47;5032702;28;20071;-60
2022/05/31 03:30:15;;;;;;;23.77;16.23;;;;;;;8.10;79.08;101228.13;5033172;28;20033;-60
2022/05/31 03:32:42;;;;;;;24.80;16.70;;;;;;;8.15;79.14;101221.78;5033415;28;20036;-60
2022/05/31 03:35:07;;;;;;;23.52;15.95;;;;;;;8.15;78.63;101219.03;5033211;28;20030;-60
2022/05/31 03:37:33;;;;;;;25.17;16.90;;;;;;;8.16;79.32;101217.91;5033157;28;20366;-60
2022/05/31 03:39:58;;;;;;;24.33;16.80;;;;;;;8.19;79.18;101223.69;5032880;28;20481;-61
2022/05/31 03:42:23;;;;;;;22.95;16.23;;;;;;;8.20;79.40;101225.34;5032402;28;20030;-61
2022/05/31 03:44:51;;;;;;;22.38;15.60;;;;;;;8.19;79.66;101215.44;5032894;28;20406;-63
2022/05/31 03:47:16;;;;;;;22.08;15.93;;;;;;;8.20;79.60;101224.50;5031167;28;20457;-61
2022/05/31 03:49:41;;;;;;;23.33;16.50;;;;;;;8.23;79.67;101219.25;5032496;28;20029;-61
2022/05/31 03:52:07;;;;;;;23.73;16.08;;;;;;;8.22;79.56;101225.06;5032356;28;20021;-61
2022/05/31 03:54:36;;;;;;;23.33;15.63;;;;;;;8.22;79.92;101223.09;5032445;28;20045;-61
2022/05/31 03:57:01;;;;;;;21.90;15.88;;;;;;;8.26;79.90;101224.22;5032148;28;20037;-61
2022/05/31 03:59:27;;;;;;;22.58;14.90;;;;;;;8.26;80.01;101218.69;5032244;28;20457;-61
2022/05/31 04:01:52;;;;;;;21.88;14.98;;;;;;;8.30;79.70;101224.47;5032345;28;20037;-61
2022/05/31 04:04:17;;;;;;;23.70;16.23;;;;;;;8.30;79.90;101212.63;5032291;28;20036;-61
2022/05/31 04:06:43;;;;;;;22.88;14.88;;;;;;;8.33;80.04;101226.69;5032604;28;20025;-61
2022/05/31 04:09:08;;;;;;;20.48;15.00;;;;;;;8.36;79.46;101225.28;5032665;28;20453;-60
2022/05/31 04:11:33;;;;;;;21.50;14.93;;;;;;;8.42;79.37;101221.38;5032319;28;20079;-60
2022/05/31 04:13:59;;;;;;;22.25;15.23;;;;;;;8.43;79.57;101215.59;5032135;28;20422;-60
2022/05/31 04:16:26;;;;;;;21.90;14.15;;;;;;;8.50;78.96;101217.25;5032379;28;20033;-60
2022/05/31 04:18:52;;;;;;;22.00;14.55;;;;;;;8.50;79.51;101218.06;5032587;28;20021;-60
2022/05/31 04:21:17;;;;;;;22.80;14.63;;;;;;;8.50;79.77;101208.97;5032217;28;20121;-60
2022/05/31 04:23:58;;;;;;;23.00;14.95;;;;;;;8.50;79.65;101211.75;5032278;28;20026;-61
2022/05/31 04:26:44;;;;;;;24.63;15.40;;;;;;;8.50;80.15;101211.75;5032053;28;20137;-60
2022/05/31 04:29:10;;;;;;;21.33;14.75;;;;;;;8.55;79.46;101215.31;5032296;28;20432;-60
2022/05/31 04:31:35;;;;;;;22.98;14.38;;;;;;;8.58;79.50;101222.19;5031875;28;20022;-60
2022/05/31 04:34:03;;;;;;;23.23;14.65;;;;;;;8.54;79.52;101208.13;5031899;28;20125;-60
2022/05/31 04:36:28;;;;;;;24.30;14.73;;;;;;;8.61;79.43;101220.78;5032434;28;20025;-60
2022/05/31 04:38:53;;;;;;;22.63;15.15;;;;;;;8.62;79.89;101220.50;5035491;28;20040;-61
2022/05/31 04:41:22;;;;;;;23.48;15.13;;;;;;;8.65;80.01;101225.44;5035942;28;20405;-60
2022/05/31 04:43:47;;;;;;;21.45;15.25;;;;;;;8.69;79.57;101231.25;5036510;28;20036;-60
2022/05/31 04:46:17;;;;;;;22.45;14.98;;;;;;;8.72;79.30;101234.25;5035632;28;20033;-60
2022/05/31 04:48:43;;;;;;;23.23;15.52;;;;;;;8.76;79.19;101229.00;5036057;28;20041;-60
2022/05/31 04:51:08;;;;;;;23.02;15.05;;;;;;;8.82;79.16;101230.59;5035960;28;20029;-60
2022/05/31 04:53:34;;;;;;;24.33;15.80;;;;;;;8.84;79.68;101211.84;5036030;28;20028;-60
2022/05/31 04:56:04;;;;;;;22.35;15.32;;;;;;;8.85;79.47;101207.97;5034532;28;20026;-59
2022/05/31 04:58:30;;;;;;;21.58;15.27;;;;;;;8.92;79.55;101218.69;5036142;28;20349;-60
2022/05/31 05:00:55;;;;;;;22.67;15.63;;;;;;;8.97;79.35;101213.13;5035697;28;20033;-60
2022/05/31 05:03:20;;;;;;;22.27;15.20;;;;;;;9.04;79.12;101210.88;5034037;28;20187;-60
2022/05/31 05:05:45;;;;;;;23.63;15.93;;;;;;;9.12;78.99;101212.19;5036035;28;20046;-60
2022/05/31 05:08:11;;;;;;;23.17;16.65;;;;;;;9.18;79.10;101207.47;5035835;28;20029;-60
2022/05/31 05:10:36;;;;;;;22.50;15.40;;;;;;;9.25;78.90;101201.63;5035942;28;20029;-60
2022/05/31 05:13:02;;;;;;;24.42;15.38;;;;;;;9.34;78.94;101205.41;5035995;28;20021;-60
2022/05/31 05:15:27;;;;;;;24.27;15.82;;;;;;;9.54;78.10;101214.63;5035748;28;20032;-60
2022/05/31 05:17:53;;;;;;;23.20;15.77;;;;;;;9.66;78.01;101209.53;5034428;28;20461;-59
2022/05/31 05:20:18;;;;;;;23.23;15.80;;;;;;;9.71;77.52;101209.50;5035787;28;20128;-60
2022/05/31 05:22:43;;;;;;;24.92;16.70;;;;;;;9.76;77.87;101200.34;5035210;28;20083;-59
2022/05/31 05:25:10;;;;;;;26.33;16.75;;;;;;;9.73;77.69;101189.84;5034748;28;20148;-60
2022/05/31 05:27:35;;;;;;;23.63;16.73;;;;;;;9.74;77.67;101203.38;5035155;28;20120;-60
2022/05/31 05:33:04;;;;;;;23.95;17.00;;;;;;;9.72;77.07;101200.09;4993925;28;20052;-60
2022/05/31 05:35:30;;;;;;;23.00;16.40;;;;;;;9.72;77.44;101193.72;4993402;28;20128;-60
2022/05/31 05:37:55;;;;;;;23.75;15.82;;;;;;;9.77;77.33;101200.03;5012562;28;20444;-60
2022/05/31 05:40:20;;;;;;;24.13;16.88;;;;;;;9.79;77.40;101197.81;5035454;28;20038;-60
2022/05/31 05:42:45;;;;;;;25.88;17.52;;;;;;;9.75;76.70;101196.72;5035280;28;20453;-60
2022/05/31 05:45:11;;;;;;;24.63;17.67;;;;;;;9.77;77.40;101201.97;5035223;28;20037;-60
2022/05/31 05:47:36;;;;;;;26.38;16.95;;;;;;;9.84;77.28;101202.44;5035560;28;20045;-60
2022/05/31 05:50:03;;;;;;;26.52;17.30;;;;;;;9.81;76.83;101200.25;5034096;28;20037;-60
2022/05/31 05:52:29;;;;;;;30.40;18.40;;;;;;;9.77;76.82;101205.56;5035273;28;20030;-60
2022/05/31 05:54:54;;;;;;;28.77;17.85;;;;;;;9.79;77.13;101206.09;5035084;28;20495;-60
2022/05/31 05:57:19;;;;;;;29.42;18.38;;;;;;;9.78;77.30;101203.59;5035289;28;20033;-60
2022/05/31 05:59:44;;;;;;;29.20;17.70;;;;;;;9.79;77.56;101197.81;5034754;28;20030;-60
2022/05/31 06:02:31;;;;;;;29.48;19.23;;;;;;;9.83;77.04;101206.31;5034926;28;20029;-60
2022/05/31 06:05:09;;;;;;;28.33;18.45;;;;;;;9.86;77.04;101205.75;5034601;28;20048;-60
2022/05/31 06:07:43;;;;;;;25.40;18.33;;;;;;;9.88;76.91;101197.97;5035233;28;20033;-61
2022/05/31 06:10:15;;;;;;;26.48;19.58;;;;;;;9.98;77.37;101197.06;5034520;28;20041;-60
2022/05/31 06:12:44;;;;;;;26.38;18.52;;;;;;;10.13;76.53;101202.41;5034682;28;20044;-60
2022/05/31 06:15:22;;;;;;;26.77;18.27;;;;;;;10.26;76.42;101202.81;5034445;28;20479;-60
2022/05/31 06:17:52;;;;;;;28.33;18.75;;;;;;;10.26;76.03;101197.28;5034318;28;20033;-59
2022/05/31 06:20:18;;;;;;;26.42;18.42;;;;;;;10.30;76.05;101210.22;5034718;28;20106;-60
2022/05/31 06:22:43;;;;;;;27.63;18.58;;;;;;;10.35;76.30;101201.03;5033846;28;20123;-61
2022/05/31 06:25:12;;;;;;;26.02;18.00;;;;;;;10.35;76.00;101189.13;5034193;28;20045;-61
2022/05/31 06:27:37;;;;;;;26.23;18.25;;;;;;;10.34;75.88;101190.28;5034355;28;20108;-60
2022/05/31 06:30:04;;;;;;;25.63;17.98;;;;;;;10.37;75.94;101196.06;5034243;28;20418;-60
2022/05/31 06:32:29;;;;;;;25.83;18.95;;;;;;;10.44;76.34;101193.75;5033706;28;20105;-61
2022/05/31 06:34:55;;;;;;;25.67;18.38;;;;;;;10.54;76.34;101191.97;5032988;28;20021;-61
2022/05/31 06:37:20;;;;;;;25.48;18.60;;;;;;;10.67;75.92;101195.94;5014887;28;20033;-61
2022/05/31 06:39:46;;;;;;;25.52;18.10;;;;;;;10.82;75.05;101198.47;5032229;28;20151;-61
2022/05/31 06:42:12;;;;;;;27.00;19.33;;;;;;;11.00;75.19;101199.59;5032338;28;20021;-61
2022/05/31 06:44:40;;;;;;;25.08;18.30;;;;;;;11.10;74.60;101197.81;5032327;28;20033;-61
2022/05/31 06:47:06;;;;;;;26.77;18.73;;;;;;;11.23;74.08;101200.63;5032443;28;20025;-61
2022/05/31 06:49:33;;;;;;;27.63;18.75;;;;;;;11.29;73.63;101204.13;5014361;28;20033;-61
2022/05/31 06:57:37;;;;;;;25.73;18.48;;;;;;;11.57;73.29;101195.09;5016879;28;20461;-61
2022/05/31 07:00:06;;;;;;;26.70;18.85;;;;;;;11.66;72.91;101193.28;5011252;28;20051;-61
2022/05/31 07:02:33;;;;;;;28.40;20.25;;;;;;;11.68;72.59;101207.63;5012431;28;20109;-61
2022/05/31 07:05:02;;;;;;;25.35;18.23;;;;;;;11.66;72.48;101196.03;5011108;28;20053;-61
2022/05/31 07:07:27;;;;;;;25.00;17.27;;;;;;;11.71;72.28;101193.97;5012236;28;20389;-61
2022/05/31 07:09:53;;;;;;;25.83;17.33;;;;;;;11.76;72.34;101201.38;5011905;28;20037;-61
2022/05/31 07:12:18;;;;;;;23.17;16.77;;;;;;;11.86;71.62;101197.59;5012215;28;20065;-61
2022/05/31 07:14:44;;;;;;;25.50;17.10;;;;;;;11.96;71.56;101186.31;5012131;28;20517;-61
2022/05/31 07:17:09;;;;;;;24.42;16.42;;;;;;;12.21;70.25;101197.25;5012170;28;20446;-61
2022/05/31 07:19:35;;;;;;;21.65;15.93;;;;;;;12.38;69.61;101194.66;5012190;28;20036;-61
2022/05/31 07:22:01;;;;;;;22.52;14.80;;;;;;;12.60;68.05;101187.53;5012333;28;20034;-61
2022/05/31 07:24:28;;;;;;;22.13;14.52;;;;;;;12.88;66.85;101193.81;5012487;28;20030;-61
2022/05/31 07:26:53;;;;;;;22.48;13.93;;;;;;;13.08;65.82;101181.41;5012216;28;20817;-60
2022/05/31 07:29:19;;;;;;;21.13;13.55;;;;;;;13.37;65.06;101191.25;5012323;28;20042;-61
2022/05/31 07:31:44;;;;;;;21.38;13.60;;;;;;;13.50;62.06;101186.81;5011921;28;20026;-61
2022/05/31 07:34:14;;;;;;;22.77;14.25;;;;;;;13.62;62.42;101188.16;5010999;28;20041;-61
2022/05/31 07:36:42;;;;;;;22.23;13.85;;;;;;;13.69;61.88;101183.78;5011807;28;20041;-62
2022/05/31 07:39:10;;;;;;;21.95;13.38;;;;;;;13.81;62.01;101185.97;5023273;28;20033;-61
2022/05/31 07:41:36;;;;;;;21.15;13.50;;;;;;;13.96;61.19;101179.16;5033365;28;20017;-61
2022/05/31 07:44:01;;;;;;;20.98;13.40;;;;;;;14.16;61.55;101180.56;5032924;28;20550;-61
2022/05/31 07:46:29;;;;;;;21.33;13.38;;;;;;;14.32;60.39;101182.88;5032932;28;20111;-61
2022/05/31 07:48:58;;;;;;;21.15;12.90;;;;;;;14.39;59.18;101180.44;5031933;28;20378;-61
2022/05/31 07:51:25;;;;;;;22.15;12.52;;;;;;;14.56;58.56;101187.19;5032988;28;20033;-61
2022/05/31 07:53:51;;;;;;;20.65;12.32;;;;;;;14.71;57.67;101174.78;5032782;28;20061;-61
2022/05/31 07:56:17;;;;;;;20.92;12.57;;;;;;;14.79;57.03;101179.53;5032584;28;20117;-61
2022/05/31 07:58:44;;;;;;;20.02;12.30;;;;;;;14.87;56.78;101175.97;5032375;28;20037;-61
2022/05/31 08:01:13;;;;;;;20.98;12.63;;;;;;;14.92;56.47;101166.63;5014598;28;20021;-61
2022/05/31 08:03:39;;;;;;;21.00;12.70;;;;;;;15.04;55.93;101171.53;5014539;28;20048;-61
2022/05/31 08:06:08;;;;;;;19.70;12.27;;;;;;;15.09;56.03;101166.63;5032722;28;20453;-61
2022/05/31 08:08:36;;;;;;;20.25;13.15;;;;;;;15.32;57.07;101166.41;5032654;28;20072;-61
2022/05/31 08:11:05;;;;;;;18.80;12.15;;;;;;;15.40;55.57;101167.53;5032557;28;20034;-61
2022/05/31 08:13:30;;;;;;;19.25;11.57;;;;;;;15.37;54.89;101169.03;5031848;28;20027;-61
2022/05/31 08:15:59;;;;;;;19.10;10.85;;;;;;;15.37;55.37;101174.59;5032604;28;20154;-61
2022/05/31 08:18:24;;;;;;;16.80;10.45;;;;;;;15.45;53.80;101170.13;5032337;28;20041;-61
2022/05/31 08:20:50;;;;;;;19.35;10.35;;;;;;;15.60;53.81;101166.00;5032031;28;20029;-61
2022/05/31 08:23:15;;;;;;;18.92;10.55;;;;;;;15.72;53.61;101171.72;5032237;28;20465;-62
2022/05/31 08:25:41;;;;;;;18.30;11.10;;;;;;;15.81;53.41;101165.28;5032596;28;20053;-62
2022/05/31 08:28:06;;;;;;;19.55;10.50;;;;;;;15.96;53.44;101158.34;5032587;28;20036;-62
2022/05/31 08:30:32;;;;;;;17.42;10.20;;;;;;;16.12;52.17;101155.81;5032285;28;20079;-61
2022/05/31 08:32:57;;;;;;;17.42;10.02;;;;;;;16.34;51.81;101158.31;5032542;28;20021;-62
2022/05/31 08:35:23;;;;;;;17.50;10.35;;;;;;;16.48;50.64;101158.03;5032506;28;20036;-62
2022/05/31 08:37:48;;;;;;;17.25;10.45;;;;;;;16.61;51.55;101150.59;5032339;28;20030;-62
2022/05/31 08:40:14;;;;;;;17.90;10.40;;;;;;;16.77;51.60;101150.78;5032050;28;20032;-62
2022/05/31 08:42:50;;;;;;;19.38;10.77;;;;;;;16.89;51.41;101146.41;5014492;28;20067;-61
2022/05/31 08:45:44;;;;;;;18.67;11.43;;;;;;;16.87;50.68;101141.16;5032402;28;20040;-62
2022/05/31 08:48:28;;;;;;;18.92;11.20;;;;;;;16.73;50.93;101144.25;5024942;28;20095;-62
2022/05/31 08:56:59;;;;;;;19.02;11.50;;;;;;;16.86;50.80;101144.31;5032842;28;19936;-61
2022/05/31 08:59:34;;;;;;;18.42;11.75;;;;;;;16.88;50.88;101131.63;5032446;28;20030;-61
2022/05/31 09:02:06;;;;;;;19.13;11.48;;;;;;;16.88;51.08;101147.56;5032061;28;20043;-61
2022/05/31 09:04:32;;;;;;;17.90;10.93;;;;;;;17.04;50.11;101156.16;5032333;28;20499;-61
2022/05/31 09:07:03;;;;;;;19.17;11.23;;;;;;;17.05;50.24;101152.22;5031845;28;20021;-60
2022/05/31 09:09:52;;;;;;;17.30;10.88;;;;;;;16.97;50.48;101151.13;5031952;28;20389;-61
2022/05/31 09:12:36;;;;;;;19.45;12.05;;;;;;;16.75;49.77;101150.31;5031988;28;20116;-61
2022/05/31 09:15:28;;;;;;;18.15;11.60;;;;;;;16.85;51.59;101154.66;5032169;28;20044;-62
2022/05/31 09:18:10;;;;;;;17.98;11.00;;;;;;;17.13;48.67;101162.50;5014055;28;20030;-64
2022/05/31 09:20:53;;;;;;;18.13;10.88;;;;;;;17.04;49.13;101150.56;5032183;28;20028;-62
2022/05/31 09:23:25;;;;;;;18.17;11.20;;;;;;;16.87;48.94;101151.50;5032832;28;20025;-63
2022/05/31 09:26:23;;;;;;;19.70;10.50;;;;;;;17.04;50.38;101142.19;5034395;28;20466;-62
2022/05/31 09:29:05;;;;;;;17.95;11.52;;;;;;;17.18;49.24;101148.31;5025186;28;20021;-62
2022/05/31 09:31:42;;;;;;;21.10;11.63;;;;;;;17.22;48.51;101145.66;5035303;28;20040;-63
2022/05/31 09:34:44;;;;;;;19.60;11.30;;;;;;;17.31;49.12;101136.00;5035216;28;20485;-60
2022/05/31 09:37:28;;;;;;;19.38;11.25;;;;;;;17.42;48.41;101139.19;5035105;28;20017;-61
2022/05/31 09:40:14;;;;;;;20.42;11.25;;;;;;;17.48;49.62;101152.94;5035437;28;20082;-63
2022/05/31 09:42:52;;;;;;;17.55;10.68;;;;;;;17.62;47.18;101143.06;5017741;28;20030;-62
2022/05/31 09:45:20;;;;;;;18.75;11.13;;;;;;;17.73;47.55;101143.41;5035214;28;20022;-62
2022/05/31 09:47:45;;;;;;;18.38;11.35;;;;;;;17.89;47.53;101148.34;5017308;28;20040;-62
2022/05/31 09:50:11;;;;;;;19.63;11.43;;;;;;;17.67;45.95;101144.81;5034850;28;20025;-62
2022/05/31 09:52:43;;;;;;;19.08;11.05;;;;;;;17.49;48.26;101140.59;5035036;28;20469;-62
2022/05/31 09:58:17;;;;;;;18.70;10.80;;;;;;;17.65;47.94;101143.53;5013624;28;20048;-66
2022/05/31 10:01:03;;;;;;;18.88;11.48;;;;;;;17.68;47.51;101138.06;5013732;28;20041;-63
2022/05/31 10:03:48;;;;;;;19.27;11.50;;;;;;;17.64;47.27;101130.72;5012242;28;20083;-63
2022/05/31 10:06:22;;;;;;;18.67;11.20;;;;;;;17.75;47.21;101132.69;5014622;28;20068;-62
2022/05/31 10:08:51;;;;;;;19.25;11.52;;;;;;;17.72;44.33;101132.59;5013501;28;20117;-62
2022/05/31 10:11:37;;;;;;;21.13;11.38;;;;;;;17.91;46.51;101134.78;5013346;28;20036;-63
2022/05/31 10:14:06;;;;;;;20.98;12.70;;;;;;;18.05;45.24;101132.50;5013510;28;20105;-62
2022/05/31 10:16:35;;;;;;;19.38;10.60;;;;;;;18.18;45.70;101140.91;5013880;28;20053;-62
2022/05/31 10:19:08;;;;;;;18.38;11.20;;;;;;;18.15;44.88;101127.59;5031140;28;20041;-62
2022/05/31 10:21:40;;;;;;;18.50;11.50;;;;;;;18.17;45.06;101131.69;5033017;28;20030;-62
2022/05/31 10:24:08;;;;;;;19.67;11.80;;;;;;;18.20;44.15;101139.38;5032886;28;20029;-62
2022/05/31 10:26:38;;;;;;;17.98;11.05;;;;;;;18.24;43.57;101133.91;5014376;28;20046;-62
2022/05/31 10:29:12;;;;;;;19.02;10.73;;;;;;;18.39;44.83;101121.97;5032694;28;20018;-62
2022/05/31 10:31:40;;;;;;;18.63;11.02;;;;;;;18.59;45.19;101133.34;5032704;28;20385;-62
2022/05/31 10:34:24;;;;;;;19.92;11.27;;;;;;;18.59;44.32;101119.34;5033214;28;20029;-61
2022/05/31 10:36:58;;;;;;;20.40;11.50;;;;;;;18.70;44.44;101133.69;5032927;28;20036;-63
2022/05/31 10:39:36;;;;;;;18.95;10.88;;;;;;;18.94;44.52;101129.19;5033173;28;20034;-63
2022/05/31 10:42:07;;;;;;;19.50;11.63;;;;;;;19.11;43.77;101119.66;5033107;28;20030;-63
2022/05/31 10:44:36;;;;;;;18.98;11.32;;;;;;;19.24;42.02;101126.81;5032533;28;20137;-63
2022/05/31 10:47:10;;;;;;;19.45;12.10;;;;;;;19.20;43.19;101117.50;5032716;28;20042;-63
2022/05/31 10:49:37;;;;;;;19.80;11.90;;;;;;;18.85;42.36;101118.91;5032478;28;20041;-63
2022/05/31 10:52:23;;;;;;;19.70;12.27;;;;;;;18.27;43.53;101123.97;5033085;28;20116;-65
2022/05/31 10:54:52;;;;;;;19.63;11.95;;;;;;;18.23;44.89;101116.25;5032557;28;20029;-63
2022/05/31 10:57:55;;;;;;;20.00;12.18;;;;;;;18.35;45.18;101115.44;5032435;28;20025;-62
2022/05/31 11:00:40;;;;;;;19.48;12.40;;;;;;;18.33;44.32;101103.78;5021228;28;20488;-62
2022/05/31 11:03:13;;;;;;;19.50;12.52;;;;;;;18.45;42.43;101097.31;5032057;28;20053;-62
2022/05/31 11:06:05;;;;;;;20.33;12.50;;;;;;;18.54;43.56;101100.78;5032278;28;20093;-63
2022/05/31 11:11:57;;;;;;;20.38;12.65;;;;;;;18.67;42.83;101103.56;5031997;28;20404;-63
2022/05/31 11:14:46;;;;;;;20.50;11.77;;;;;;;18.63;42.97;101094.22;5031806;28;20029;-63
2022/05/31 11:17:34;;;;;;;20.15;12.15;;;;;;;18.63;42.93;101111.88;5029676;28;20032;-64
2022/05/31 11:20:17;;;;;;;18.65;12.60;;;;;;;18.66;43.42;101118.75;5015788;28;20072;-62
2022/05/31 11:22:48;;;;;;;19.95;13.35;;;;;;;18.83;43.08;101112.03;5033276;28;20091;-63
2022/05/31 11:25:46;;;;;;;20.50;12.88;;;;;;;19.07;43.84;101113.94;5033236;28;20056;-63
2022/05/31 11:28:19;;;;;;;18.60;12.23;;;;;;;19.15;43.55;101117.75;4988996;28;20060;-64
2022/05/31 11:31:16;;;;;;;20.27;12.83;;;;;;;19.24;44.15;101118.41;5033177;28;20049;-64
2022/05/31 11:34:01;;;;;;;19.60;13.30;;;;;;;19.16;44.65;101117.41;5033424;28;20731;-63
2022/05/31 11:37:01;;;;;;;20.50;13.85;;;;;;;19.15;44.86;101115.78;5033167;28;20033;-63
2022/05/31 11:39:54;;;;;;;20.75;13.70;;;;;;;19.01;44.94;101123.78;4990359;28;20080;-63
2022/05/31 11:42:43;;;;;;;21.10;13.90;;;;;;;18.83;44.54;101118.44;5033141;28;20028;-63
2022/05/31 11:45:30;;;;;;;20.75;13.45;;;;;;;18.69;44.26;101127.25;5033135;28;20052;-65
2022/05/31 11:48:01;;;;;;;20.52;13.52;;;;;;;18.52;44.22;101122.75;5031684;28;20036;-63
2022/05/31 11:50:36;;;;;;;20.70;13.75;;;;;;;18.35;44.11;101123.00;5032726;28;20053;-63
2022/05/31 11:53:16;;;;;;;20.17;14.05;;;;;;;18.37;44.03;101120.69;5032934;28;20030;-63